Have a Safe July 4th! 

Flight Track Log - Related Links

Times and Time Zones

All times are in EDT time to prevent confusion due to time zone crossing. See the FFT756 flight status page for this flight to view local times or setup timezone preferences in your user account.

Time Position Orientation Groundspeed Altitude Reporting Facility
EDT Latitude Longitude Course Direction KTS MPH feet Rate Location/Type
Mon 02:18:37 PM 28.4333 -81.3000 16° North 172 198 700  Level Orlando TRACON
Mon 02:19:37 PM 28.4833 -81.2833 16° North 202 232 2,500 2,333 Climbing Orlando TRACON
Mon 02:20:43 PM 28.5500 -81.2500 24° Northeast 266 306 5,600 2,814 Climbing Orlando TRACON
Mon 02:22:51 PM 28.7033 -81.2950 346° North 274 315 11,600 2,936 Climbing Jacksonville Center
Mon 02:23:51 PM 28.7914 -81.3147 349° North 298 343 14,800 2,900 Climbing Jacksonville Center
Mon 02:24:51 PM 28.8856 -81.3369 348° North 322 371 17,400 2,300 Climbing Jacksonville Center
Mon 02:25:51 PM 28.9819 -81.3592 349° North 341 392 19,400 2,100 Climbing Jacksonville Center
Mon 02:26:51 PM 29.0844 -81.3839 348° North 362 417 21,600 2,300 Climbing Jacksonville Center
Mon 02:27:51 PM 29.1931 -81.3989 353° North 375 432 24,000 2,400 Climbing Jacksonville Center
Mon 02:28:51 PM 29.2997 -81.4092 355° North 386 444 26,400 1,850 Climbing Jacksonville Center
Mon 02:29:51 PM 29.4125 -81.4217 354° North 391 450 27,700 1,400 Climbing Jacksonville Center
Mon 02:30:51 PM 29.5294 -81.4319 356° North 407 468 29,200 1,500 Climbing Jacksonville Center
Mon 02:31:51 PM 29.6528 -81.4322 360° North 421 484 30,700 1,450 Climbing Jacksonville Center
Mon 02:32:51 PM 29.7781 -81.4328 360° North 434 499 32,100 1,950 Climbing Jacksonville Center
Mon 02:33:51 PM 29.8992 -81.4333 360° North 441 507 34,600 2,000 Climbing Jacksonville Center
Mon 02:34:51 PM 30.0203 -81.4342 360° North 435 501 36,100 1,550 Climbing Jacksonville Center
Mon 02:35:51 PM 30.1328 -81.4322 North 422 486 37,700 1,250 Climbing Jacksonville Center
Mon 02:36:51 PM 30.2456 -81.4331 360° North 407 468 38,600 650 Climbing Jacksonville Center
Mon 02:37:51 PM 30.3625 -81.4314 North 402 463 39,000 200 Climbing Jacksonville Center
Mon 02:38:51 PM 30.4919 -81.4342 359° North 409 471 39,000  Level Jacksonville Center
Mon 02:39:51 PM 30.6089 -81.4347 360° North 409 471 39,000 50 Level Jacksonville Center
Mon 02:40:51 PM 30.7281 -81.4353 360° North 414 476 39,100  Climbing Jacksonville Center
Mon 02:41:51 PM 30.8469 -81.4358 360° North 424 488 39,000 -50 Descending Jacksonville Center
Mon 02:42:51 PM 30.9661 -81.4364 360° North 424 488 39,000  Level Jacksonville Center
Mon 02:43:52 PM 31.0831 -81.4394 359° North 419 482 39,000  Level Jacksonville Center
Mon 02:44:52 PM 31.1997 -81.4378 North 419 482 39,000  Level Jacksonville Center
Mon 02:45:51 PM 31.3167 -81.4214 North 419 482 39,000 50 Level Jacksonville Center
Mon 02:46:51 PM 31.4228 -81.3906 14° North 419 482 39,100  Climbing Jacksonville Center
Mon 02:47:51 PM 31.5497 -81.3567 13° North 425 489 39,000 -50 Descending Jacksonville Center
Mon 02:48:51 PM 31.6536 -81.3306 12° North 425 489 39,000  Level Jacksonville Center
Mon 02:49:51 PM 31.7847 -81.2967 12° North 433 498 39,000  Level Jacksonville Center
Mon 02:50:51 PM 31.8908 -81.2678 13° North 434 499 39,000 -50 Level Jacksonville Center
Mon 02:51:51 PM 32.0117 -81.2364 12° North 434 499 38,900 -50 Descending Jacksonville Center
Mon 02:52:51 PM 32.1303 -81.2072 12° North 439 505 38,900  Level Jacksonville Center
Mon 02:53:51 PM 32.2469 -81.1953 North 424 488 38,900  Level Jacksonville Center
Mon 02:54:51 PM 32.3617 -81.1833 North 419 482 38,900 50 Level Jacksonville Center
Mon 02:55:51 PM 32.4806 -81.1761 North 424 488 39,000 50 Climbing Jacksonville Center
Mon 02:56:51 PM 32.6114 -81.1317 16° North 430 495 39,000  Level Jacksonville Center
Mon 02:57:51 PM 32.7172 -81.0803 22° Northeast 445 512 39,000 -50 Level Jacksonville Center
Mon 02:58:51 PM 32.8314 -81.0286 21° North 445 512 38,900 -50 Descending Jacksonville Center
Mon 02:59:51 PM 32.9411 -80.9742 23° Northeast 440 506 38,900 -400 Level Jacksonville Center
Mon 03:00:51 PM 33.0572 -80.9197 21° North 435 501 38,100 -950 Descending Jacksonville Center
Mon 03:01:51 PM 33.1647 -80.8653 23° Northeast 429 494 37,000 -1,100 Descending Jacksonville Center
Mon 03:02:51 PM 33.2767 -80.8131 21° North 423 487 35,900 -1,000 Descending Jacksonville Center
Mon 03:03:51 PM 33.3906 -80.7556 23° Northeast 429 494 35,000 -1,000 Descending Jacksonville Center
Mon 03:04:51 PM 33.5042 -80.6906 26° Northeast 440 506 33,900 -1,000 Descending Jacksonville Center
Mon 03:05:51 PM 33.6200 -80.6303 23° Northeast 445 512 33,000 -950 Descending Jacksonville Center
Mon 03:06:51 PM 33.7339 -80.5775 21° North 445 512 32,000 -1,050 Descending Jacksonville Center
Mon 03:07:51 PM 33.8536 -80.5194 22° Northeast 433 498 30,900 -1,000 Descending Jacksonville Center
Mon 03:08:51 PM 33.9611 -80.4664 22° Northeast 428 493 30,000 -950 Descending Jacksonville Center
Mon 03:09:51 PM 34.0667 -80.4158 22° Northeast 411 473 29,000 -1,000 Descending Jacksonville Center
Mon 03:10:51 PM 34.1681 -80.3678 21° North 398 458 28,000 -1,000 Descending Jacksonville Center
Mon 03:11:51 PM 34.2650 -80.3222 21° North 387 445 27,000 -1,000 Descending Jacksonville Center
Mon 03:12:51 PM 34.3619 -80.2717 23° Northeast 382 440 26,000 -1,161 Descending Jacksonville Center
Mon 03:14:26 PM 34.4917 -80.2056 23° Northeast 374 430 24,000 -784 Descending Washington Center
Mon 03:15:24 PM 34.5853 -80.1631 20° North 361 415 24,000  Level Washington Center
Mon 03:16:25 PM 34.6767 -80.1175 22° Northeast 361 415 24,000 -393 Level Washington Center
Mon 03:17:26 PM 34.7681 -80.0694 23° Northeast 361 415 23,200 -496 Descending Washington Center
Mon 03:18:26 PM 34.8611 -79.9811 38° Northeast 372 428 23,000 -102 Descending Washington Center
Mon 03:19:24 PM 34.9433 -79.8994 39° Northeast 378 435 23,000 -202 Level Washington Center
Mon 03:20:25 PM 35.0347 -79.8536 22° Northeast 367 422 22,600 -1,190 Descending Washington Center
Mon 03:21:25 PM 35.1281 -79.8128 20° North 355 409 20,600 -2,000 Descending Washington Center
Mon 03:23:00 PM 35.1875 -79.6234 69° East  Level FlightAware Approximate
Mon 03:30:00 PM 35.8505 -79.8318 328° Northwest  Level FlightAware Approximate
Mon 03:31:00 PM 35.9409 -79.8909 321° Northwest  Level FlightAware Approximate
Mon 03:32:00 PM 36.0275 -79.9628 332° Northwest  Level FlightAware Approximate
Mon 03:33:00 PM 36.1000 -79.9333 15° North  Level FlightAware Approximate
Mon 03:34:00 PM 36.1013 -79.9411 15° North  Level Estimated
Mon 03:35:00 PM 36.1000 -79.9333 15° North  Level FlightAware Approximate
Mon 03:36:00 PM 36.1013 -79.9411 15° North  Level Estimated
Mon 03:37:00 PM 36.1000 -79.9333 15° North  Level FlightAware Approximate
Mon 03:38:00 PM 36.1013 -79.9411 15° North  Level Estimated
Mon 03:39:00 PM 36.1000 -79.9333 15° North  Level FlightAware Approximate
Mon 03:40:00 PM 36.1013 -79.9411 15° North  Level Estimated
Mon 03:41:00 PM 36.1000 -79.9333 15° North  Level FlightAware Approximate
Mon 03:42:00 PM 36.1013 -79.9411 15° North  Level Estimated
Mon 03:43:00 PM 36.1000 -79.9333 15° North  Level FlightAware Approximate
Mon 03:44:00 PM 36.1013 -79.9411 15° North  Level Estimated
Mon 03:45:00 PM 36.1000 -79.9333 15° North  Level FlightAware Approximate

Login

Don't have an account? Register now (free) for customized features, flight alerts, and more!